createdAt,value
2018-01-27T00:01:13.557Z,7.94
2018-01-27T00:03:46.132Z,7.93
2018-01-27T00:06:13.642Z,7.96
2018-01-27T00:08:41.129Z,7.96
2018-01-27T00:11:08.591Z,8.00
2018-01-27T00:13:36.140Z,8.01
2018-01-27T00:16:03.625Z,8.05
2018-01-27T00:18:31.137Z,8.09
2018-01-27T00:20:58.635Z,8.11
2018-01-27T00:23:26.087Z,8.10
2018-01-27T00:25:53.560Z,8.09
2018-01-27T00:28:21.066Z,8.08
2018-01-27T00:30:49.866Z,8.05
2018-01-27T00:33:19.658Z,8.02
2018-01-27T00:35:47.144Z,8.01
2018-01-27T00:38:15.221Z,8.05
2018-01-27T00:40:44.467Z,8.10
2018-01-27T00:43:12.915Z,8.20
2018-01-27T00:45:41.410Z,8.20
2018-01-27T00:48:08.910Z,8.22
2018-01-27T00:50:36.398Z,8.18
2018-01-27T00:53:04.809Z,8.19
2018-01-27T00:55:32.315Z,8.17
2018-01-27T00:57:59.805Z,8.13
2018-01-27T01:00:27.315Z,8.15
2018-01-27T01:02:54.779Z,8.11
2018-01-27T01:05:23.103Z,8.13
2018-01-27T01:07:50.589Z,8.14
2018-01-27T01:10:18.067Z,8.12
2018-01-27T01:12:45.542Z,8.18
2018-01-27T01:15:13.312Z,8.17
2018-01-27T01:17:41.408Z,8.15
2018-01-27T01:20:08.930Z,8.13
2018-01-27T01:22:36.405Z,8.09
2018-01-27T01:25:03.943Z,8.06
2018-01-27T01:27:31.470Z,8.07
2018-01-27T01:29:59.014Z,8.06
2018-01-27T01:32:26.474Z,8.08
2018-01-27T01:34:53.964Z,8.12
2018-01-27T01:37:21.463Z,8.12
2018-01-27T01:39:48.922Z,8.11
2018-01-27T01:42:23.327Z,8.09
2018-01-27T01:44:51.552Z,8.07
2018-01-27T01:47:19.140Z,8.06
2018-01-27T01:49:51.568Z,8.07
2018-01-27T01:52:20.552Z,8.05
2018-01-27T01:54:48.026Z,8.05
2018-01-27T01:57:16.508Z,8.06
2018-01-27T01:59:44.033Z,8.10
2018-01-27T02:02:11.516Z,8.09
2018-01-27T02:04:39.021Z,8.12
2018-01-27T02:07:06.646Z,8.10
2018-01-27T02:09:34.111Z,8.13
2018-01-27T02:12:01.546Z,8.07
2018-01-27T02:14:29.004Z,8.08
2018-01-27T02:16:56.539Z,8.06
2018-01-27T02:19:24.054Z,8.07
2018-01-27T02:21:52.013Z,8.05
2018-01-27T02:24:19.526Z,8.07
2018-01-27T02:26:47.006Z,8.06
2018-01-27T02:29:14.467Z,8.06
2018-01-27T02:31:41.957Z,8.06
2018-01-27T02:34:14.442Z,8.10
2018-01-27T02:36:41.927Z,8.09
2018-01-27T02:39:09.383Z,8.07
2018-01-27T02:41:36.901Z,8.07
2018-01-27T02:44:04.406Z,8.08
2018-01-27T02:46:31.861Z,8.08
2018-01-27T02:48:59.374Z,8.11
2018-01-27T02:51:26.912Z,8.13
2018-01-27T02:53:54.417Z,8.12
2018-01-27T02:56:21.891Z,8.10
2018-01-27T02:58:49.353Z,8.12
2018-01-27T03:01:16.905Z,8.10
2018-01-27T03:03:44.486Z,8.09
2018-01-27T03:06:12.003Z,8.11
2018-01-27T03:08:39.880Z,8.07
2018-01-27T03:11:07.353Z,8.02
2018-01-27T03:13:34.805Z,8.02
2018-01-27T03:16:02.752Z,7.97
2018-01-27T03:18:30.210Z,7.93
2018-01-27T03:20:57.667Z,7.93
2018-01-27T03:23:28.018Z,7.96
2018-01-27T03:25:55.645Z,7.98
2018-01-27T03:28:23.477Z,7.96
2018-01-27T03:30:51.152Z,7.94
2018-01-27T03:33:18.641Z,7.93
2018-01-27T03:35:46.186Z,7.90
2018-01-27T03:38:13.669Z,7.89
2018-01-27T03:40:41.175Z,7.85
2018-01-27T03:43:22.964Z,7.81
2018-01-27T03:45:50.811Z,7.73
2018-01-27T03:48:20.029Z,7.68
2018-01-27T03:50:47.502Z,7.58
2018-01-27T03:53:14.990Z,7.57
2018-01-27T03:55:42.441Z,7.52
2018-01-27T03:58:10.948Z,7.51
2018-01-27T04:00:38.455Z,7.53
2018-01-27T04:03:11.171Z,7.57
2018-01-27T04:05:38.724Z,7.60
2018-01-27T04:08:06.202Z,7.60
2018-01-27T04:10:33.665Z,7.66
2018-01-27T04:13:01.161Z,7.60
2018-01-27T04:15:28.647Z,7.60
2018-01-27T04:17:56.119Z,7.59
2018-01-27T04:20:23.570Z,7.58
2018-01-27T04:22:51.053Z,7.60
2018-01-27T04:25:18.547Z,7.62
2018-01-27T04:27:46.044Z,7.58
2018-01-27T04:30:13.495Z,7.61
2018-01-27T04:32:40.968Z,7.64
2018-01-27T04:35:08.523Z,7.66
2018-01-27T04:37:35.994Z,7.67
2018-01-27T04:40:03.539Z,7.66
2018-01-27T04:42:31.108Z,7.68
2018-01-27T04:44:59.599Z,7.71
2018-01-27T04:47:27.092Z,7.71
2018-01-27T04:49:54.560Z,7.70
2018-01-27T04:52:22.968Z,7.71
2018-01-27T04:54:50.438Z,7.69
2018-01-27T04:57:18.142Z,7.70
2018-01-27T04:59:46.533Z,7.69
2018-01-27T05:02:14.055Z,7.67
2018-01-27T05:04:46.471Z,7.68
2018-01-27T05:07:13.955Z,7.70
2018-01-27T05:09:41.446Z,7.72
2018-01-27T05:12:08.900Z,7.72
2018-01-27T05:14:36.374Z,7.74
2018-01-27T05:17:03.838Z,7.75
2018-01-27T05:19:31.353Z,7.75
2018-01-27T05:21:58.850Z,7.74
2018-01-27T05:24:26.363Z,7.79
2018-01-27T05:26:53.847Z,7.80
2018-01-27T05:29:21.337Z,7.82
2018-01-27T05:31:49.863Z,7.83
2018-01-27T05:34:18.115Z,7.80
2018-01-27T05:36:45.622Z,7.80
2018-01-27T05:39:13.074Z,7.76
2018-01-27T05:41:40.573Z,7.74
2018-01-27T05:44:08.172Z,7.74
2018-01-27T05:46:35.638Z,7.70
2018-01-27T05:49:03.109Z,7.67
2018-01-27T05:51:30.638Z,7.70
2018-01-27T05:53:58.119Z,7.69
2018-01-27T05:56:25.611Z,7.67
2018-01-27T05:58:53.117Z,7.72
2018-01-27T06:01:20.566Z,7.69
2018-01-27T06:03:48.032Z,7.69
2018-01-27T06:06:15.518Z,7.68
2018-01-27T06:08:42.991Z,7.68
2018-01-27T06:11:11.240Z,7.69
2018-01-27T06:13:40.222Z,7.69
2018-01-27T06:16:08.652Z,7.67
2018-01-27T06:18:38.871Z,7.75
2018-01-27T06:21:06.715Z,7.73
2018-01-27T06:23:34.213Z,7.67
2018-01-27T06:26:01.695Z,7.64
2018-01-27T06:28:30.004Z,7.63
2018-01-27T06:30:58.370Z,7.63
2018-01-27T06:33:25.877Z,7.62
2018-01-27T06:35:53.364Z,7.62
2018-01-27T06:38:20.850Z,7.63
2018-01-27T06:40:48.424Z,7.62
2018-01-27T06:43:15.880Z,7.60
2018-01-27T06:45:43.434Z,7.60
2018-01-27T06:48:10.913Z,7.60
2018-01-27T06:50:38.452Z,7.60
2018-01-27T06:53:05.968Z,7.58
2018-01-27T06:55:33.444Z,7.54
2018-01-27T06:58:00.935Z,7.57
2018-01-27T07:00:28.408Z,7.55
2018-01-27T07:02:56.010Z,7.58
2018-01-27T07:05:23.490Z,7.53
2018-01-27T07:07:51.034Z,7.56
2018-01-27T07:10:18.642Z,7.59
2018-01-27T07:12:46.143Z,7.58
2018-01-27T07:15:13.709Z,7.59
2018-01-27T07:17:42.152Z,7.61
2018-01-27T07:20:09.650Z,7.58
2018-01-27T07:22:38.124Z,7.58
2018-01-27T07:25:05.640Z,7.62
2018-01-27T07:27:33.139Z,7.55
2018-01-27T07:30:00.698Z,7.54
2018-01-27T07:32:28.163Z,7.56
2018-01-27T07:34:55.746Z,7.58
2018-01-27T07:37:23.229Z,7.60
2018-01-27T07:39:50.732Z,7.61
2018-01-27T07:42:18.599Z,7.64
2018-01-27T07:44:47.111Z,7.64
2018-01-27T07:47:14.639Z,7.62
2018-01-27T07:49:42.707Z,7.63
2018-01-27T07:52:10.347Z,7.63
2018-01-27T07:54:37.824Z,7.65
2018-01-27T07:57:05.305Z,7.67
2018-01-27T07:59:32.826Z,7.69
2018-01-27T08:02:00.412Z,7.73
2018-01-27T08:04:27.963Z,7.75
2018-01-27T08:06:55.456Z,7.75
2018-01-27T08:09:23.909Z,7.76
2018-01-27T08:11:51.397Z,7.75
2018-01-27T08:14:18.871Z,7.75
2018-01-27T08:16:47.533Z,7.76
2018-01-27T08:19:16.002Z,7.79
2018-01-27T08:21:45.082Z,7.81
2018-01-27T08:24:12.718Z,7.84
2018-01-27T08:26:40.324Z,7.86
2018-01-27T08:29:07.835Z,7.90
2018-01-27T08:31:37.206Z,7.93
2018-01-27T08:34:05.550Z,7.99
2018-01-27T08:36:33.118Z,7.93
2018-01-27T08:39:00.658Z,7.93
2018-01-27T08:41:28.315Z,7.93
2018-01-27T08:43:55.826Z,7.93
2018-01-27T08:46:23.350Z,7.91
2018-01-27T08:48:51.287Z,7.95
2018-01-27T08:51:18.792Z,7.99
2018-01-27T08:53:46.300Z,8.05
2018-01-27T08:56:13.787Z,8.02
2018-01-27T08:58:41.322Z,7.94
2018-01-27T09:01:08.917Z,7.97
2018-01-27T09:03:36.417Z,8.00
2018-01-27T09:06:03.980Z,8.04
2018-01-27T09:08:31.495Z,8.14
2018-01-27T09:10:59.132Z,8.10
2018-01-27T09:13:26.721Z,8.05
2018-01-27T09:15:54.201Z,7.98
2018-01-27T09:18:21.873Z,7.99
2018-01-27T09:20:49.504Z,7.88
2018-01-27T09:23:17.077Z,7.82
2018-01-27T09:25:44.557Z,7.81
2018-01-27T09:28:12.194Z,7.86
2018-01-27T09:30:39.665Z,7.95
2018-01-27T09:33:07.191Z,7.92
2018-01-27T09:35:34.852Z,7.91
2018-01-27T09:38:02.317Z,7.92
2018-01-27T09:40:29.849Z,7.92
2018-01-27T09:42:57.421Z,7.97
2018-01-27T09:45:24.951Z,7.99
2018-01-27T09:47:52.550Z,8.01
2018-01-27T09:50:20.129Z,7.98
2018-01-27T09:52:48.687Z,7.97
2018-01-27T09:55:16.207Z,7.94
2018-01-27T09:57:43.695Z,7.94
2018-01-27T10:00:11.267Z,7.95
2018-01-27T10:02:38.978Z,7.95
2018-01-27T10:05:06.486Z,7.89
2018-01-27T10:07:33.957Z,7.88
2018-01-27T10:10:01.563Z,7.92
2018-01-27T10:12:31.556Z,7.94
2018-01-27T10:14:59.105Z,7.99
2018-01-27T10:17:26.623Z,8.02
2018-01-27T10:19:54.102Z,8.01
2018-01-27T10:22:21.579Z,8.04
2018-01-27T10:24:49.063Z,8.04
2018-01-27T10:27:16.579Z,8.09
2018-01-27T10:29:44.052Z,8.07
2018-01-27T10:32:11.739Z,8.13
2018-01-27T10:34:39.238Z,8.19
2018-01-27T10:37:06.862Z,8.24
2018-01-27T10:39:34.386Z,8.26
2018-01-27T10:42:01.944Z,8.27
2018-01-27T10:44:29.605Z,8.27
2018-01-27T10:46:57.153Z,8.24
2018-01-27T10:49:24.642Z,8.24
2018-01-27T10:51:52.455Z,8.22
2018-01-27T10:54:20.483Z,8.23
2018-01-27T10:56:47.986Z,8.23
2018-01-27T10:59:15.477Z,8.24
2018-01-27T11:01:43.023Z,8.24
2018-01-27T11:04:10.521Z,8.27
2018-01-27T11:06:38.048Z,8.31
2018-01-27T11:09:05.757Z,8.35
2018-01-27T11:11:33.308Z,8.39
2018-01-27T11:14:00.845Z,8.47
2018-01-27T11:16:30.917Z,8.51
2018-01-27T11:21:40.101Z,8.65
2018-01-27T11:24:07.657Z,8.68
2018-01-27T11:26:35.120Z,8.71
2018-01-27T11:29:02.609Z,8.66
2018-01-27T11:31:30.113Z,8.64
2018-01-27T11:33:57.918Z,8.69
2018-01-27T11:36:25.487Z,8.65
2018-01-27T11:38:53.003Z,8.61
2018-01-27T11:41:20.555Z,8.63
2018-01-27T11:43:48.296Z,8.65
2018-01-27T11:46:15.790Z,8.61
2018-01-27T11:48:43.258Z,8.60
2018-01-27T11:51:10.891Z,8.62
2018-01-27T11:53:38.400Z,8.64
2018-01-27T11:56:06.106Z,8.69
2018-01-27T11:58:33.803Z,8.65
2018-01-27T12:01:01.262Z,8.59
2018-01-27T12:03:28.927Z,8.61
2018-01-27T12:05:56.421Z,8.67
2018-01-27T12:08:23.983Z,8.64
2018-01-27T12:10:51.472Z,8.61
2018-01-27T12:13:18.991Z,8.64
2018-01-27T12:15:46.520Z,8.58
2018-01-27T12:18:14.198Z,8.57
2018-01-27T12:20:41.713Z,8.59
2018-01-27T12:23:09.397Z,8.60
2018-01-27T12:25:37.719Z,8.70
2018-01-27T12:28:05.273Z,8.81
2018-01-27T12:30:33.218Z,8.93
2018-01-27T12:33:00.718Z,8.98
2018-01-27T12:35:28.192Z,9.10
2018-01-27T12:37:55.689Z,9.21
2018-01-27T12:40:23.179Z,9.33
2018-01-27T12:42:50.706Z,9.44
2018-01-27T12:45:18.225Z,9.57
2018-01-27T12:47:45.984Z,9.64
2018-01-27T12:50:13.569Z,9.75
2018-01-27T12:52:41.081Z,9.82
2018-01-27T12:55:08.622Z,9.94
2018-01-27T12:57:36.172Z,10.08
2018-01-27T13:00:03.852Z,10.14
2018-01-27T13:02:31.356Z,10.23
2018-01-27T13:04:58.924Z,10.06
2018-01-27T13:07:26.408Z,9.96
2018-01-27T13:09:54.041Z,9.80
2018-01-27T13:12:21.589Z,9.83
2018-01-27T13:14:49.308Z,9.83
2018-01-27T13:17:16.776Z,9.77
2018-01-27T13:19:44.225Z,9.62
2018-01-27T13:22:12.016Z,9.55
2018-01-27T13:24:40.317Z,9.44
2018-01-27T13:27:07.790Z,9.43
2018-01-27T13:29:35.313Z,9.46
2018-01-27T13:32:02.880Z,9.59
2018-01-27T13:34:30.399Z,9.73
2018-01-27T13:36:57.968Z,9.87
2018-01-27T13:39:25.563Z,9.90
2018-01-27T13:41:53.322Z,9.79
2018-01-27T13:44:20.945Z,9.69
2018-01-27T13:46:48.458Z,9.58
2018-01-27T13:49:16.078Z,9.49
2018-01-27T13:51:43.732Z,9.39
2018-01-27T13:54:11.183Z,9.34
2018-01-27T13:56:38.695Z,9.24
2018-01-27T13:59:06.450Z,9.27
2018-01-27T14:01:34.273Z,9.35
2018-01-27T14:04:01.873Z,9.44
2018-01-27T14:06:30.795Z,9.49
2018-01-27T14:08:58.386Z,9.51
2018-01-27T14:11:26.666Z,9.54
2018-01-27T14:13:54.202Z,9.53
2018-01-27T14:16:21.751Z,9.55
2018-01-27T14:18:49.232Z,9.56
2018-01-27T14:21:16.941Z,9.59
2018-01-27T14:23:44.573Z,9.54
2018-01-27T14:26:12.119Z,9.52
2018-01-27T14:28:39.723Z,9.48
2018-01-27T14:31:07.274Z,9.47
2018-01-27T14:33:44.402Z,9.47
2018-01-27T14:36:11.931Z,9.47
2018-01-27T14:38:39.471Z,9.46
2018-01-27T14:41:06.958Z,9.30
2018-01-27T14:43:34.630Z,9.25
2018-01-27T14:46:02.327Z,9.16
2018-01-27T14:48:29.867Z,9.09
2018-01-27T14:50:57.404Z,8.99
2018-01-27T14:53:24.895Z,8.93
2018-01-27T14:55:52.421Z,8.90
2018-01-27T14:58:19.878Z,8.86
2018-01-27T15:00:47.420Z,8.86
2018-01-27T15:03:14.917Z,8.86
2018-01-27T15:05:42.473Z,8.82
2018-01-27T15:08:09.954Z,8.81
2018-01-27T15:10:37.514Z,8.79
2018-01-27T15:13:05.023Z,8.79
2018-01-27T15:15:32.571Z,8.78
2018-01-27T15:18:00.091Z,8.77
2018-01-27T15:20:27.688Z,8.79
2018-01-27T15:22:55.374Z,8.76
2018-01-27T15:25:22.920Z,8.76
2018-01-27T15:27:50.462Z,8.73
2018-01-27T15:30:18.090Z,8.71
2018-01-27T15:32:45.630Z,8.67
2018-01-27T15:35:13.143Z,8.65
2018-01-27T15:37:40.648Z,8.60
2018-01-27T15:40:08.714Z,8.59
2018-01-27T15:42:36.220Z,8.54
2018-01-27T15:45:03.711Z,8.50
2018-01-27T15:47:31.305Z,8.48
2018-01-27T15:49:58.798Z,8.46
2018-01-27T15:52:26.300Z,8.42
2018-01-27T15:54:55.321Z,8.35
2018-01-27T15:57:23.048Z,8.34
2018-01-27T15:59:50.547Z,8.32
2018-01-27T16:02:18.060Z,8.29
2018-01-27T16:04:45.564Z,8.25
2018-01-27T16:07:13.133Z,8.23
2018-01-27T16:09:41.377Z,8.22
2018-01-27T16:12:08.993Z,8.21
2018-01-27T16:14:46.114Z,8.17
2018-01-27T16:17:13.736Z,8.14
2018-01-27T16:19:41.339Z,8.14
2018-01-27T16:22:08.862Z,8.12
2018-01-27T16:24:36.400Z,8.14
2018-01-27T16:27:03.976Z,8.12
2018-01-27T16:29:31.427Z,8.11
2018-01-27T16:31:59.400Z,8.11
2018-01-27T16:34:28.423Z,8.10
2018-01-27T16:36:56.057Z,8.08
2018-01-27T16:39:23.634Z,8.09
2018-01-27T16:41:51.277Z,8.09
2018-01-27T16:44:18.894Z,8.12
2018-01-27T16:46:46.454Z,8.08
2018-01-27T16:49:14.292Z,8.07
2018-01-27T16:51:41.875Z,8.05
2018-01-27T16:54:09.406Z,8.07
2018-01-27T16:56:36.944Z,8.05
2018-01-27T16:59:04.446Z,8.05
2018-01-27T17:01:32.100Z,8.05
2018-01-27T17:04:09.374Z,8.05
2018-01-27T17:06:36.849Z,8.03
2018-01-27T17:09:04.373Z,8.01
2018-01-27T17:11:32.647Z,8.01
2018-01-27T17:14:00.145Z,8.00
2018-01-27T17:16:27.754Z,7.99
2018-01-27T17:18:55.355Z,7.96
2018-01-27T17:21:23.794Z,7.93
2018-01-27T17:23:51.355Z,7.88
2018-01-27T17:26:19.089Z,7.89
2018-01-27T17:28:46.659Z,7.87
2018-01-27T17:31:14.530Z,7.89
2018-01-27T17:33:42.247Z,7.88
2018-01-27T17:36:10.857Z,7.89
2018-01-27T17:38:39.688Z,7.88
2018-01-27T17:41:07.247Z,7.86
2018-01-27T17:43:34.976Z,7.83
2018-01-27T17:46:02.524Z,7.80
2018-01-27T17:48:30.969Z,7.78
2018-01-27T17:50:58.552Z,7.77
2018-01-27T17:53:26.102Z,7.74
2018-01-27T17:55:53.678Z,7.73
2018-01-27T17:58:21.242Z,7.71
2018-01-27T18:00:48.863Z,7.69
2018-01-27T18:03:16.534Z,7.65
2018-01-27T18:05:44.222Z,7.63
2018-01-27T18:08:11.702Z,7.61
2018-01-27T18:10:39.250Z,7.58
2018-01-27T18:13:06.723Z,7.49
2018-01-27T18:15:35.848Z,7.53
2018-01-27T18:18:04.182Z,7.53
2018-01-27T18:20:32.655Z,7.53
2018-01-27T18:23:00.262Z,7.52
2018-01-27T18:25:27.979Z,7.48
2018-01-27T18:27:55.497Z,7.49
2018-01-27T18:30:23.588Z,7.49
2018-01-27T18:32:51.252Z,7.45
2018-01-27T18:35:19.597Z,7.41
2018-01-27T18:37:47.109Z,7.40
2018-01-27T18:40:15.482Z,7.37
2018-01-27T18:42:43.834Z,7.36
2018-01-27T18:45:11.642Z,7.31
2018-01-27T18:47:39.170Z,7.26
2018-01-27T18:50:06.696Z,7.27
2018-01-27T18:52:34.251Z,7.17
2018-01-27T18:55:01.864Z,7.16
2018-01-27T18:57:29.367Z,7.14
2018-01-27T18:59:56.853Z,7.14
2018-01-27T19:02:24.442Z,7.08
2018-01-27T19:04:52.928Z,7.12
2018-01-27T19:07:20.451Z,7.08
2018-01-27T19:09:47.954Z,7.04
2018-01-27T19:12:15.516Z,7.00
2018-01-27T19:14:44.102Z,6.97
2018-01-27T19:17:11.621Z,6.96
2018-01-27T19:19:39.334Z,6.90
2018-01-27T19:22:07.078Z,6.88
2018-01-27T19:24:34.690Z,6.93
2018-01-27T19:27:04.720Z,6.96
2018-01-27T19:29:32.477Z,6.99
2018-01-27T19:32:00.043Z,6.92
2018-01-27T19:34:28.235Z,6.87
2018-01-27T19:36:55.748Z,6.79
2018-01-27T19:39:23.353Z,6.82
2018-01-27T19:41:51.000Z,6.86
2018-01-27T19:44:18.553Z,6.82
2018-01-27T19:46:46.098Z,6.73
2018-01-27T19:49:14.420Z,6.68
2018-01-27T19:51:42.033Z,6.69
2018-01-27T19:54:12.845Z,6.73
2018-01-27T19:56:40.527Z,6.69
2018-01-27T19:59:08.193Z,6.66
2018-01-27T20:01:35.704Z,6.62
2018-01-27T20:04:04.278Z,6.58
2018-01-27T20:06:31.952Z,6.58
2018-01-27T20:08:59.606Z,6.61
2018-01-27T20:11:27.930Z,6.66
2018-01-27T20:13:55.474Z,6.62
2018-01-27T20:16:22.980Z,6.64
2018-01-27T20:18:50.611Z,6.61
2018-01-27T20:21:18.143Z,6.65
2018-01-27T20:23:46.449Z,6.66
2018-01-27T20:26:14.127Z,6.67
2018-01-27T20:28:42.569Z,6.71
2018-01-27T20:31:10.204Z,6.69
2018-01-27T20:33:47.466Z,6.68
2018-01-27T20:36:15.416Z,6.69
2018-01-27T20:38:42.996Z,6.74
2018-01-27T20:41:10.571Z,6.69
2018-01-27T20:43:38.219Z,6.65
2018-01-27T20:46:05.895Z,6.68
2018-01-27T20:48:33.493Z,6.66
2018-01-27T20:51:01.200Z,6.69
2018-01-27T20:53:28.792Z,6.73
2018-01-27T20:55:56.403Z,6.69
2018-01-27T20:58:24.175Z,6.66
2018-01-27T21:00:52.046Z,6.66
2018-01-27T21:03:19.590Z,6.65
2018-01-27T21:05:47.400Z,6.63
2018-01-27T21:08:15.250Z,6.61
2018-01-27T21:10:43.629Z,6.60
2018-01-27T21:13:11.173Z,6.63
2018-01-27T21:15:38.852Z,6.61
2018-01-27T21:18:06.630Z,6.63
2018-01-27T21:20:34.415Z,6.58
2018-01-27T21:23:02.084Z,6.58
2018-01-27T21:25:30.392Z,6.59
2018-01-27T21:27:57.878Z,6.65
2018-01-27T21:30:26.628Z,6.66
2018-01-27T21:32:54.420Z,6.66
2018-01-27T21:35:22.411Z,6.66
2018-01-27T21:37:50.069Z,6.70
2018-01-27T21:40:17.702Z,6.69
2018-01-27T21:42:45.358Z,6.68
2018-01-27T21:45:13.874Z,6.66
2018-01-27T21:47:42.411Z,6.66
2018-01-27T21:50:10.601Z,6.64
2018-01-27T21:52:38.152Z,6.63
2018-01-27T21:55:05.823Z,6.63
2018-01-27T21:57:33.368Z,6.63
2018-01-27T22:00:01.751Z,6.66
2018-01-27T22:02:29.349Z,6.62
2018-01-27T22:04:56.830Z,6.79
2018-01-27T22:07:24.825Z,6.83
2018-01-27T22:09:52.328Z,6.85
2018-01-27T22:12:20.816Z,6.85
2018-01-27T22:14:48.764Z,6.81
2018-01-27T22:17:16.322Z,6.81
2018-01-27T22:19:44.071Z,6.80
2018-01-27T22:22:11.726Z,6.74
2018-01-27T22:24:53.526Z,6.75
2018-01-27T22:27:21.075Z,6.70
2018-01-27T22:29:48.632Z,6.67
2018-01-27T22:32:17.060Z,6.72
2018-01-27T22:34:44.679Z,6.70
2018-01-27T22:37:12.454Z,6.70
2018-01-27T22:39:41.003Z,6.71
2018-01-27T22:42:08.727Z,6.74
2018-01-27T22:44:46.137Z,6.75
2018-01-27T22:47:14.587Z,6.80
2018-01-27T22:49:42.123Z,6.79
2018-01-27T22:52:09.794Z,6.79
2018-01-27T22:54:46.977Z,6.81
2018-01-27T22:57:14.552Z,6.80
2018-01-27T22:59:42.350Z,6.81
2018-01-27T23:02:09.963Z,6.82
2018-01-27T23:04:38.536Z,6.84
2018-01-27T23:07:06.302Z,6.87
2018-01-27T23:09:33.868Z,6.87
2018-01-27T23:12:01.696Z,6.88
2018-01-27T23:14:29.260Z,6.91
2018-01-27T23:16:56.887Z,6.89
2018-01-27T23:19:24.431Z,6.89
2018-01-27T23:21:52.042Z,6.88
2018-01-27T23:24:19.550Z,6.88
2018-01-27T23:26:47.038Z,6.89
2018-01-27T23:29:14.726Z,6.86
2018-01-27T23:31:42.823Z,6.86
2018-01-27T23:34:29.621Z,6.86
2018-01-27T23:36:57.095Z,6.89
2018-01-27T23:39:26.103Z,6.88
2018-01-27T23:41:53.698Z,6.88
2018-01-27T23:44:21.683Z,6.89
2018-01-27T23:46:49.985Z,6.88
2018-01-27T23:49:17.573Z,6.90
2018-01-27T23:51:45.201Z,6.86
2018-01-27T23:54:12.701Z,6.85
2018-01-27T23:56:40.401Z,6.83
2018-01-27T23:59:07.902Z,6.81
